DAL413 KLAX-KMSP
Flight info
| Callsign | DAL413 |
|---|---|
| Flight time | N/A |
| Altitude | 37000 |
| Route | ORCKA5 LAS J146 DVC DCT HBU DCT BRK DCT HCT DCT ONL DCT FSD DCT SSWAN TORGY3 |
| Aircraft | B738/M-SDE2E3FGHIRWXY/LB1 |
Departure
| Time | 2026-04-25 20:10 |
|---|---|
| Airport | Los Angeles International Airport (KLAX) |
Arrival
| Time | N/A |
|---|---|
| Airport | Minneapolis–Saint Paul International Airport / Wold–Chamberlain Field (KMSP) |
| Time | Latitude | Longitude | Altitude | Speed | Heading |
|---|---|---|---|---|---|
| 2026-04-25 19:09 | 33.94632 | -118.40837 | 92 ft | 0 kts | 97° |
| 2026-04-25 19:58 | 33.94633 | -118.40856 | 92 ft | 4 kts | 78° |
| 2026-04-25 19:58 | 33.94621 | -118.40882 | 92 ft | 4 kts | 32° |
| 2026-04-25 19:58 | 33.94597 | -118.40893 | 91 ft | 4 kts | 3° |
| 2026-04-25 19:58 | 33.94586 | -118.40893 | 91 ft | 2 kts | 353° |
| 2026-04-25 19:59 | 33.94611 | -118.40897 | 92 ft | 4 kts | 353° |
| 2026-04-25 19:59 | 33.94622 | -118.40898 | 91 ft | 0 kts | 353° |
| 2026-04-25 20:04 | 33.94623 | -118.40898 | 92 ft | 1 kts | 353° |
| 2026-04-25 20:05 | 33.94672 | -118.40906 | 92 ft | 12 kts | 353° |
| 2026-04-25 20:05 | 33.94695 | -118.40909 | 93 ft | 2 kts | 353° |
| 2026-04-25 20:05 | 33.94720 | -118.40911 | 93 ft | 5 kts | 359° |
| 2026-04-25 20:05 | 33.94762 | -118.40891 | 92 ft | 9 kts | 24° |
| 2026-04-25 20:06 | 33.94820 | -118.40869 | 95 ft | 9 kts | 33° |
| 2026-04-25 20:06 | 33.94844 | -118.40783 | 93 ft | 13 kts | 84° |
| 2026-04-25 20:06 | 33.94857 | -118.40653 | 93 ft | 18 kts | 83° |
| 2026-04-25 20:06 | 33.94874 | -118.40491 | 94 ft | 21 kts | 83° |
| 2026-04-25 20:07 | 33.94893 | -118.40305 | 93 ft | 23 kts | 83° |
| 2026-04-25 20:07 | 33.94909 | -118.40150 | 93 ft | 14 kts | 83° |
| 2026-04-25 20:07 | 33.94922 | -118.40018 | 92 ft | 17 kts | 82° |
| 2026-04-25 20:07 | 33.94939 | -118.39940 | 94 ft | 6 kts | 56° |
| 2026-04-25 20:08 | 33.94957 | -118.39923 | 93 ft | 0 kts | 30° |
| 2026-04-25 20:08 | 33.94958 | -118.39922 | 93 ft | 2 kts | 30° |
| 2026-04-25 20:08 | 33.94999 | -118.39912 | 93 ft | 11 kts | 353° |
| 2026-04-25 20:09 | 33.95030 | -118.39922 | 92 ft | 2 kts | 340° |
| 2026-04-25 20:09 | 33.95041 | -118.39962 | 94 ft | 9 kts | 262° |
| 2026-04-25 20:09 | 33.95024 | -118.40125 | 95 ft | 45 kts | 262° |
| 2026-04-25 20:09 | 33.94954 | -118.40786 | 98 ft | 113 kts | 264° |
| 2026-04-25 20:10 | 33.94852 | -118.41950 | 175 ft | 159 kts | 260° |
| 2026-04-25 20:10 | 33.94745 | -118.43319 | 730 ft | 173 kts | 261° |
| 2026-04-25 20:10 | 33.94596 | -118.44819 | 1314 ft | 186 kts | 260° |
| 2026-04-25 20:10 | 33.94431 | -118.46388 | 2007 ft | 191 kts | 260° |
| 2026-04-25 20:11 | 33.94212 | -118.47964 | 2711 ft | 192 kts | 259° |
| 2026-04-25 20:11 | 33.93989 | -118.49559 | 3397 ft | 194 kts | 259° |
| 2026-04-25 20:11 | 33.93604 | -118.51093 | 3979 ft | 194 kts | 233° |
| 2026-04-25 20:11 | 33.92444 | -118.52107 | 3794 ft | 232 kts | 196° |
| 2026-04-25 20:12 | 33.90692 | -118.52065 | 3230 ft | 274 kts | 165° |
| 2026-04-25 20:12 | 33.88931 | -118.51136 | 2657 ft | 284 kts | 161° |
| 2026-04-25 20:12 | 33.87026 | -118.50875 | 2575 ft | 267 kts | 192° |
| 2026-04-25 20:12 | 33.86430 | -118.51061 | 2741 ft | 257 kts | 200° |
| 2026-04-25 20:13 | 33.84410 | -118.53361 | 3098 ft | 251 kts | 248° |
| 2026-04-25 20:13 | 33.84165 | -118.55447 | 3346 ft | 257 kts | 269° |
| 2026-04-25 20:13 | 33.84228 | -118.57598 | 3611 ft | 258 kts | 271° |
| 2026-04-25 20:13 | 33.84327 | -118.59764 | 3861 ft | 261 kts | 271° |
| 2026-04-25 20:14 | 33.84424 | -118.61959 | 4278 ft | 264 kts | 271° |
| 2026-04-25 20:14 | 33.84310 | -118.64167 | 4980 ft | 267 kts | 252° |
| 2026-04-25 20:14 | 33.83380 | -118.66045 | 5871 ft | 264 kts | 225° |
| 2026-04-25 20:14 | 33.81800 | -118.67208 | 6651 ft | 272 kts | 198° |
| 2026-04-25 20:15 | 33.79946 | -118.67479 | 7548 ft | 273 kts | 184° |
| 2026-04-25 20:15 | 33.78039 | -118.67495 | 8454 ft | 275 kts | 182° |
| 2026-04-25 20:15 | 33.76118 | -118.67466 | 9360 ft | 277 kts | 182° |
| 2026-04-25 20:15 | 33.74199 | -118.67139 | 10171 ft | 285 kts | 163° |
| 2026-04-25 20:16 | 33.72447 | -118.65855 | 10545 ft | 313 kts | 140° |
| 2026-04-25 20:16 | 33.71152 | -118.63659 | 11050 ft | 334 kts | 118° |
| 2026-04-25 20:16 | 33.70607 | -118.60894 | 11755 ft | 350 kts | 95° |
| 2026-04-25 20:16 | 33.70979 | -118.57966 | 12457 ft | 364 kts | 72° |
| 2026-04-25 20:17 | 33.72265 | -118.55312 | 12970 ft | 375 kts | 48° |
| 2026-04-25 20:17 | 33.74289 | -118.53360 | 12988 ft | 374 kts | 26° |
| 2026-04-25 20:17 | 33.76644 | -118.52070 | 13003 ft | 371 kts | 19° |
| 2026-04-25 20:17 | 33.79046 | -118.50936 | 13000 ft | 371 kts | 18° |
| 2026-04-25 20:18 | 33.81443 | -118.49807 | 13351 ft | 380 kts | 18° |
| 2026-04-25 20:18 | 33.83900 | -118.48594 | 14149 ft | 383 kts | 19° |
| 2026-04-25 20:18 | 33.86354 | -118.47333 | 15019 ft | 383 kts | 20° |
| 2026-04-25 20:18 | 33.88799 | -118.46058 | 15840 ft | 385 kts | 20° |
| 2026-04-25 20:19 | 33.91220 | -118.44633 | 16612 ft | 391 kts | 30° |
| 2026-04-25 20:19 | 33.93395 | -118.42629 | 17368 ft | 397 kts | 43° |
| 2026-04-25 20:19 | 33.95221 | -118.40116 | 18152 ft | 400 kts | 55° |
| 2026-04-25 20:19 | 33.96780 | -118.37322 | 18723 ft | 406 kts | 57° |
| 2026-04-25 20:20 | 33.98335 | -118.34459 | 18981 ft | 410 kts | 57° |
| 2026-04-25 20:20 | 33.99924 | -118.31588 | 18989 ft | 412 kts | 56° |
| 2026-04-25 20:20 | 34.01503 | -118.28786 | 19020 ft | 411 kts | 56° |
| 2026-04-25 20:20 | 34.03138 | -118.25904 | 19391 ft | 419 kts | 56° |
| 2026-04-25 20:21 | 34.04785 | -118.23005 | 20142 ft | 421 kts | 56° |
| 2026-04-25 20:21 | 34.06442 | -118.20085 | 20878 ft | 423 kts | 56° |
| 2026-04-25 20:21 | 34.08112 | -118.17138 | 21482 ft | 429 kts | 56° |
| 2026-04-25 20:21 | 34.09806 | -118.14142 | 22080 ft | 434 kts | 56° |
| 2026-04-25 20:22 | 34.11520 | -118.11108 | 22678 ft | 440 kts | 56° |
| 2026-04-25 20:22 | 34.12101 | -118.10078 | 22859 ft | 442 kts | 56° |
| 2026-04-25 20:22 | 34.15002 | -118.04934 | 23762 ft | 449 kts | 56° |
| 2026-04-25 20:22 | 34.16760 | -118.01815 | 24291 ft | 451 kts | 56° |
| 2026-04-25 20:23 | 34.18507 | -117.98710 | 24817 ft | 454 kts | 56° |
| 2026-04-25 20:23 | 34.20288 | -117.95543 | 25299 ft | 458 kts | 56° |
| 2026-04-25 20:23 | 34.22082 | -117.92349 | 25753 ft | 462 kts | 56° |
| 2026-04-25 20:23 | 34.23894 | -117.89122 | 26154 ft | 467 kts | 56° |
| 2026-04-25 20:24 | 34.25724 | -117.85858 | 26607 ft | 470 kts | 56° |
| 2026-04-25 20:24 | 34.27560 | -117.82581 | 27109 ft | 472 kts | 56° |
| 2026-04-25 20:24 | 34.29404 | -117.79286 | 27557 ft | 476 kts | 56° |
| 2026-04-25 20:24 | 34.31264 | -117.75959 | 28022 ft | 477 kts | 56° |
| 2026-04-25 20:25 | 34.33134 | -117.72613 | 28396 ft | 482 kts | 56° |
| 2026-04-25 20:25 | 34.35016 | -117.69243 | 28744 ft | 487 kts | 56° |
| 2026-04-25 20:25 | 34.36922 | -117.65914 | 29145 ft | 489 kts | 54° |
| 2026-04-25 20:25 | 34.38917 | -117.62562 | 29558 ft | 492 kts | 53° |
| 2026-04-25 20:26 | 34.40942 | -117.59211 | 29920 ft | 495 kts | 53° |
| 2026-04-25 20:26 | 34.42985 | -117.55839 | 30228 ft | 498 kts | 53° |
| 2026-04-25 20:26 | 34.45035 | -117.52440 | 30539 ft | 501 kts | 53° |
| 2026-04-25 20:26 | 34.47085 | -117.49024 | 30870 ft | 503 kts | 53° |
| 2026-04-25 20:27 | 34.49143 | -117.45575 | 31208 ft | 505 kts | 53° |
| 2026-04-25 20:27 | 34.51195 | -117.42125 | 31598 ft | 505 kts | 54° |
| 2026-04-25 20:27 | 34.53252 | -117.38659 | 31907 ft | 507 kts | 54° |
| 2026-04-25 20:27 | 34.55311 | -117.35185 | 32227 ft | 509 kts | 54° |
| 2026-04-25 20:28 | 34.57349 | -117.31743 | 32599 ft | 509 kts | 54° |
| 2026-04-25 20:28 | 34.59409 | -117.28260 | 33013 ft | 508 kts | 54° |
| 2026-04-25 20:28 | 34.61468 | -117.24778 | 33417 ft | 507 kts | 54° |
| 2026-04-25 20:28 | 34.63528 | -117.21291 | 33770 ft | 508 kts | 54° |
| 2026-04-25 20:29 | 34.65585 | -117.17806 | 34013 ft | 508 kts | 54° |
| 2026-04-25 20:29 | 34.67647 | -117.14309 | 34283 ft | 510 kts | 54° |
| 2026-04-25 20:29 | 34.69711 | -117.10805 | 34524 ft | 511 kts | 53° |
| 2026-04-25 20:29 | 34.71779 | -117.07292 | 34803 ft | 512 kts | 54° |
| 2026-04-25 20:30 | 34.73849 | -117.03772 | 35096 ft | 512 kts | 54° |
| 2026-04-25 20:30 | 34.75892 | -117.00292 | 35357 ft | 513 kts | 53° |
| 2026-04-25 20:30 | 34.77965 | -116.96759 | 35607 ft | 514 kts | 53° |
| 2026-04-25 20:30 | 34.80039 | -116.93221 | 35883 ft | 514 kts | 53° |
| 2026-04-25 20:31 | 34.82119 | -116.89667 | 36164 ft | 514 kts | 53° |
| 2026-04-25 20:31 | 34.84187 | -116.86131 | 36530 ft | 512 kts | 53° |
| 2026-04-25 20:31 | 34.86253 | -116.82595 | 36779 ft | 513 kts | 53° |
| 2026-04-25 20:31 | 34.88331 | -116.79037 | 36853 ft | 518 kts | 53° |
| 2026-04-25 20:32 | 34.92561 | -116.71894 | 36854 ft | 520 kts | 49° |
| 2026-04-25 20:32 | 34.97353 | -116.65385 | 36834 ft | 512 kts | 44° |
| 2026-04-25 20:33 | 35.02230 | -116.59170 | 36833 ft | 510 kts | 43° |
| 2026-04-25 20:33 | 35.05489 | -116.54974 | 36823 ft | 510 kts | 44° |
| 2026-04-25 20:34 | 35.11917 | -116.46528 | 36803 ft | 510 kts | 45° |
| 2026-04-25 20:34 | 35.16724 | -116.40149 | 36830 ft | 510 kts | 45° |
| 2026-04-25 20:35 | 35.21495 | -116.33808 | 36835 ft | 511 kts | 45° |
| 2026-04-25 20:35 | 35.26306 | -116.27411 | 36818 ft | 511 kts | 45° |
| 2026-04-25 20:36 | 35.31109 | -116.21013 | 36784 ft | 510 kts | 45° |
| 2026-04-25 20:36 | 35.35889 | -116.14634 | 36800 ft | 508 kts | 45° |
| 2026-04-25 20:37 | 35.40664 | -116.08250 | 36826 ft | 508 kts | 45° |
| 2026-04-25 20:37 | 35.45409 | -116.01893 | 36807 ft | 508 kts | 45° |
| 2026-04-25 20:38 | 35.50176 | -115.95495 | 36820 ft | 508 kts | 45° |
| 2026-04-25 20:38 | 35.54934 | -115.89096 | 36823 ft | 508 kts | 45° |
| 2026-04-25 20:39 | 35.59696 | -115.82679 | 36822 ft | 507 kts | 45° |
| 2026-04-25 20:39 | 35.62840 | -115.78436 | 36822 ft | 507 kts | 45° |
| 2026-04-25 20:40 | 35.69119 | -115.69854 | 36825 ft | 508 kts | 46° |
| 2026-04-25 20:40 | 35.73817 | -115.63370 | 36834 ft | 507 kts | 45° |
| 2026-04-25 20:41 | 35.78513 | -115.56887 | 36834 ft | 507 kts | 45° |
| 2026-04-25 20:41 | 35.83211 | -115.50396 | 36848 ft | 508 kts | 45° |
| 2026-04-25 20:42 | 35.87884 | -115.43931 | 36818 ft | 509 kts | 45° |
| 2026-04-25 20:42 | 35.92582 | -115.37413 | 36803 ft | 508 kts | 45° |
| 2026-04-25 20:43 | 35.97275 | -115.30892 | 36829 ft | 507 kts | 45° |
| 2026-04-25 20:43 | 36.01956 | -115.24374 | 36782 ft | 507 kts | 45° |
| 2026-04-25 20:44 | 36.06563 | -115.17795 | 36775 ft | 508 kts | 52° |
| 2026-04-25 20:44 | 36.09930 | -115.10203 | 36788 ft | 508 kts | 70° |
| 2026-04-25 20:45 | 36.12340 | -115.02008 | 36733 ft | 507 kts | 71° |
| 2026-04-25 20:45 | 36.14768 | -114.93822 | 36717 ft | 507 kts | 70° |
| 2026-04-25 20:46 | 36.17249 | -114.85712 | 36717 ft | 507 kts | 70° |
| 2026-04-25 20:46 | 36.19747 | -114.77557 | 36708 ft | 507 kts | 70° |
| 2026-04-25 20:47 | 36.22251 | -114.69402 | 36691 ft | 507 kts | 70° |
| 2026-04-25 20:47 | 36.24749 | -114.61245 | 36685 ft | 506 kts | 70° |
| 2026-04-25 20:48 | 36.27237 | -114.53089 | 36676 ft | 506 kts | 70° |
| 2026-04-25 20:48 | 36.29707 | -114.44969 | 36678 ft | 507 kts | 70° |
| 2026-04-25 20:49 | 36.32182 | -114.36802 | 36696 ft | 506 kts | 70° |
| 2026-04-25 20:49 | 36.34658 | -114.28616 | 36687 ft | 507 kts | 70° |
| 2026-04-25 20:50 | 36.37128 | -114.20421 | 36710 ft | 507 kts | 70° |
| 2026-04-25 20:50 | 36.39578 | -114.12271 | 36695 ft | 508 kts | 70° |
| 2026-04-25 20:51 | 36.42039 | -114.04061 | 36716 ft | 507 kts | 70° |
| 2026-04-25 20:51 | 36.44497 | -113.95837 | 36717 ft | 508 kts | 70° |
| 2026-04-25 20:52 | 36.46534 | -113.89002 | 36722 ft | 508 kts | 70° |
| 2026-04-25 20:52 | 36.49376 | -113.79440 | 36732 ft | 508 kts | 70° |
| 2026-04-25 20:53 | 36.51814 | -113.71210 | 36730 ft | 508 kts | 70° |
| 2026-04-25 20:53 | 36.54251 | -113.62961 | 36727 ft | 509 kts | 70° |
| 2026-04-25 20:54 | 36.56684 | -113.54696 | 36753 ft | 508 kts | 70° |
| 2026-04-25 20:54 | 36.59106 | -113.46446 | 36746 ft | 508 kts | 70° |
| 2026-04-25 20:55 | 36.61522 | -113.38196 | 36765 ft | 508 kts | 70° |
| 2026-04-25 20:55 | 36.63914 | -113.29989 | 36766 ft | 507 kts | 70° |
| 2026-04-25 20:56 | 36.66300 | -113.21725 | 36785 ft | 507 kts | 70° |
| 2026-04-25 20:56 | 36.68682 | -113.13446 | 36791 ft | 507 kts | 70° |
| 2026-04-25 20:57 | 36.71043 | -113.05222 | 36809 ft | 507 kts | 70° |
| 2026-04-25 20:57 | 36.73413 | -112.96943 | 36834 ft | 508 kts | 70° |
| 2026-04-25 20:58 | 36.75785 | -112.88633 | 36811 ft | 509 kts | 70° |
| 2026-04-25 20:58 | 36.78151 | -112.80323 | 36803 ft | 509 kts | 70° |
| 2026-04-25 20:59 | 36.80497 | -112.72051 | 36792 ft | 509 kts | 70° |
| 2026-04-25 20:59 | 36.82852 | -112.63722 | 36758 ft | 509 kts | 70° |
| 2026-04-25 21:00 | 36.84425 | -112.58148 | 36738 ft | 509 kts | 70° |
| 2026-04-25 21:01 | 36.88721 | -112.42862 | 36728 ft | 510 kts | 70° |
| 2026-04-25 21:01 | 36.91053 | -112.34559 | 36737 ft | 510 kts | 70° |
| 2026-04-25 21:02 | 36.93398 | -112.26197 | 36726 ft | 510 kts | 71° |
| 2026-04-25 21:02 | 36.95739 | -112.17826 | 36719 ft | 510 kts | 71° |
| 2026-04-25 21:03 | 36.98072 | -112.09456 | 36720 ft | 510 kts | 71° |
| 2026-04-25 21:03 | 37.00400 | -112.01076 | 36701 ft | 510 kts | 71° |
| 2026-04-25 21:04 | 37.02707 | -111.92749 | 36687 ft | 510 kts | 71° |
| 2026-04-25 21:04 | 37.05020 | -111.84367 | 36690 ft | 509 kts | 71° |
| 2026-04-25 21:05 | 37.07327 | -111.75985 | 36673 ft | 509 kts | 71° |
| 2026-04-25 21:05 | 37.09609 | -111.67669 | 36673 ft | 508 kts | 71° |
| 2026-04-25 21:06 | 37.11892 | -111.59320 | 36686 ft | 506 kts | 71° |
| 2026-04-25 21:06 | 37.14165 | -111.50982 | 36737 ft | 505 kts | 71° |
| 2026-04-25 21:07 | 37.16428 | -111.42652 | 36739 ft | 505 kts | 71° |
| 2026-04-25 21:07 | 37.18685 | -111.34321 | 36730 ft | 504 kts | 71° |
| 2026-04-25 21:08 | 37.20933 | -111.25999 | 36696 ft | 504 kts | 71° |
| 2026-04-25 21:08 | 37.23161 | -111.17718 | 36673 ft | 505 kts | 71° |
| 2026-04-25 21:09 | 37.26525 | -111.05168 | 36669 ft | 506 kts | 71° |
| 2026-04-25 21:09 | 37.28766 | -110.96786 | 36697 ft | 506 kts | 71° |
| 2026-04-25 21:10 | 37.30983 | -110.88437 | 36688 ft | 508 kts | 72° |
| 2026-04-25 21:10 | 37.33214 | -110.80009 | 36681 ft | 510 kts | 71° |
| 2026-04-25 21:11 | 37.35454 | -110.71534 | 36680 ft | 511 kts | 72° |
| 2026-04-25 21:11 | 37.37687 | -110.63059 | 36671 ft | 511 kts | 72° |
| 2026-04-25 21:12 | 37.39539 | -110.56005 | 36686 ft | 511 kts | 72° |
| 2026-04-25 21:12 | 37.41390 | -110.48936 | 36677 ft | 512 kts | 72° |
| 2026-04-25 21:13 | 37.44345 | -110.37609 | 36682 ft | 512 kts | 72° |
| 2026-04-25 21:13 | 37.46554 | -110.29110 | 36691 ft | 511 kts | 72° |
| 2026-04-25 21:14 | 37.48387 | -110.22038 | 36692 ft | 511 kts | 72° |
| 2026-04-25 21:14 | 37.50939 | -110.12154 | 36705 ft | 510 kts | 71° |
| 2026-04-25 21:15 | 37.52772 | -110.05031 | 36708 ft | 510 kts | 71° |
| 2026-04-25 21:15 | 37.54937 | -109.96594 | 36711 ft | 510 kts | 71° |
| 2026-04-25 21:16 | 37.57113 | -109.88084 | 36707 ft | 510 kts | 72° |
| 2026-04-25 21:16 | 37.59279 | -109.79585 | 36698 ft | 510 kts | 71° |
| 2026-04-25 21:17 | 37.61438 | -109.71085 | 36722 ft | 508 kts | 72° |
| 2026-04-25 21:17 | 37.62514 | -109.66837 | 36855 ft | 509 kts | 72° |
| 2026-04-25 21:17 | 37.63591 | -109.62575 | 36865 ft | 509 kts | 71° |
| 2026-04-25 21:18 | 37.65724 | -109.54121 | 36892 ft | 510 kts | 72° |
| 2026-04-25 21:18 | 37.67867 | -109.45595 | 36873 ft | 510 kts | 72° |
| 2026-04-25 21:19 | 37.70005 | -109.37062 | 36852 ft | 510 kts | 72° |
| 2026-04-25 21:19 | 37.72138 | -109.28519 | 36817 ft | 510 kts | 72° |
| 2026-04-25 21:20 | 37.73905 | -109.21416 | 36786 ft | 510 kts | 72° |
| 2026-04-25 21:20 | 37.76367 | -109.11489 | 36749 ft | 510 kts | 72° |
| 2026-04-25 21:21 | 37.78480 | -109.02933 | 36759 ft | 510 kts | 72° |
| 2026-04-25 21:21 | 37.80592 | -108.94364 | 36745 ft | 510 kts | 71° |
| 2026-04-25 21:22 | 37.83156 | -108.86084 | 36750 ft | 508 kts | 64° |
| 2026-04-25 21:22 | 37.86097 | -108.77948 | 36747 ft | 510 kts | 63° |
| 2026-04-25 21:23 | 37.89041 | -108.69780 | 36749 ft | 509 kts | 64° |
| 2026-04-25 21:23 | 37.91917 | -108.61593 | 36756 ft | 508 kts | 64° |
| 2026-04-25 21:24 | 37.94736 | -108.53459 | 36764 ft | 508 kts | 64° |
| 2026-04-25 21:24 | 37.97568 | -108.45257 | 36759 ft | 508 kts | 64° |
| 2026-04-25 21:25 | 38.00392 | -108.37062 | 36769 ft | 507 kts | 64° |
| 2026-04-25 21:25 | 38.03212 | -108.28863 | 36768 ft | 506 kts | 64° |
| 2026-04-25 21:26 | 38.06001 | -108.20735 | 36761 ft | 506 kts | 64° |
| 2026-04-25 21:26 | 38.08800 | -108.12556 | 36773 ft | 505 kts | 64° |
| 2026-04-25 21:27 | 38.11590 | -108.04377 | 36778 ft | 505 kts | 64° |
| 2026-04-25 21:27 | 38.14376 | -107.96187 | 36776 ft | 505 kts | 64° |
| 2026-04-25 21:28 | 38.17153 | -107.88004 | 36788 ft | 504 kts | 64° |
| 2026-04-25 21:28 | 38.19903 | -107.79873 | 36775 ft | 504 kts | 64° |
| 2026-04-25 21:29 | 38.22670 | -107.71672 | 36809 ft | 505 kts | 64° |
| 2026-04-25 21:29 | 38.25438 | -107.63445 | 36789 ft | 507 kts | 64° |
| 2026-04-25 21:30 | 38.28209 | -107.55184 | 36780 ft | 507 kts | 64° |
| 2026-04-25 21:30 | 38.30505 | -107.48321 | 36795 ft | 508 kts | 65° |
| 2026-04-25 21:31 | 38.33723 | -107.38674 | 36774 ft | 509 kts | 64° |
| 2026-04-25 21:31 | 38.36477 | -107.30392 | 36803 ft | 507 kts | 65° |
| 2026-04-25 21:32 | 38.39222 | -107.22114 | 36841 ft | 507 kts | 65° |
| 2026-04-25 21:32 | 38.41958 | -107.13838 | 36885 ft | 506 kts | 65° |
| 2026-04-25 21:33 | 38.44666 | -107.05629 | 36907 ft | 506 kts | 65° |
| 2026-04-25 21:33 | 38.46899 | -106.97110 | 36950 ft | 507 kts | 73° |
| 2026-04-25 21:34 | 38.48686 | -106.88405 | 36945 ft | 507 kts | 75° |
| 2026-04-25 21:34 | 38.49565 | -106.84045 | 36776 ft | 507 kts | 74° |
| 2026-04-25 21:34 | 38.50457 | -106.79694 | 36782 ft | 507 kts | 74° |
| 2026-04-25 21:35 | 38.52269 | -106.71069 | 36779 ft | 507 kts | 73° |
| 2026-04-25 21:35 | 38.54119 | -106.62381 | 36768 ft | 508 kts | 73° |
| 2026-04-25 21:36 | 38.55973 | -106.53668 | 36764 ft | 508 kts | 74° |
| 2026-04-25 21:36 | 38.57801 | -106.45025 | 36765 ft | 507 kts | 73° |
| 2026-04-25 21:37 | 38.59336 | -106.37731 | 36800 ft | 508 kts | 73° |
| 2026-04-25 21:37 | 38.61459 | -106.27596 | 36821 ft | 507 kts | 73° |
| 2026-04-25 21:38 | 38.63272 | -106.18919 | 36792 ft | 502 kts | 74° |
| 2026-04-25 21:38 | 38.65049 | -106.10338 | 36858 ft | 499 kts | 74° |
| 2026-04-25 21:39 | 38.66828 | -106.01753 | 36865 ft | 499 kts | 74° |
| 2026-04-25 21:39 | 38.68595 | -105.93192 | 36697 ft | 503 kts | 73° |
| 2026-04-25 21:40 | 38.70374 | -105.84531 | 36708 ft | 504 kts | 74° |
| 2026-04-25 21:40 | 38.72153 | -105.75829 | 36719 ft | 506 kts | 74° |
| 2026-04-25 21:41 | 38.73922 | -105.67139 | 36714 ft | 508 kts | 74° |
| 2026-04-25 21:41 | 38.75698 | -105.58376 | 36738 ft | 510 kts | 73° |
| 2026-04-25 21:42 | 38.77475 | -105.49581 | 36743 ft | 510 kts | 73° |
| 2026-04-25 21:42 | 38.79246 | -105.40769 | 36758 ft | 511 kts | 73° |
| 2026-04-25 21:43 | 38.81009 | -105.31965 | 36776 ft | 510 kts | 74° |
| 2026-04-25 21:43 | 38.82754 | -105.23211 | 36773 ft | 510 kts | 74° |
| 2026-04-25 21:44 | 38.84508 | -105.14378 | 36780 ft | 511 kts | 74° |
| 2026-04-25 21:45 | 38.87129 | -105.01106 | 36788 ft | 512 kts | 74° |
| 2026-04-25 21:45 | 38.88868 | -104.92249 | 36832 ft | 511 kts | 74° |
| 2026-04-25 21:46 | 38.90578 | -104.83498 | 36885 ft | 499 kts | 75° |
| 2026-04-25 21:46 | 38.92249 | -104.74922 | 36885 ft | 499 kts | 75° |
| 2026-04-25 21:47 | 38.93933 | -104.66269 | 36923 ft | 499 kts | 73° |
| 2026-04-25 21:47 | 38.96562 | -104.58100 | 36938 ft | 493 kts | 57° |
| 2026-04-25 21:48 | 38.99940 | -104.50415 | 36928 ft | 494 kts | 56° |
| 2026-04-25 21:48 | 39.03331 | -104.42728 | 36907 ft | 495 kts | 57° |
| 2026-04-25 21:49 | 39.06662 | -104.35034 | 36868 ft | 496 kts | 57° |
| 2026-04-25 21:49 | 39.09995 | -104.27240 | 36841 ft | 497 kts | 57° |
| 2026-04-25 21:50 | 39.13323 | -104.19424 | 36822 ft | 498 kts | 58° |
| 2026-04-25 21:50 | 39.16649 | -104.11598 | 36810 ft | 499 kts | 58° |
| 2026-04-25 21:51 | 39.19954 | -104.03809 | 36850 ft | 499 kts | 58° |
| 2026-04-25 21:51 | 39.23283 | -103.95941 | 36872 ft | 499 kts | 58° |